Rosedale, Kansas
Current Conditions -  °F | °C
As of 4:54 PM on Tuesday 27 Jan 2015 (Local Time) from KMKC Reporting Station
Clear Clear  
Wind Chill: 57°   Ceiling: Unl
Heat Index: 57°   Visibility: 10mi
Dew Point: 31°   Wind: 7mph
Humidity: 37%   Direction: 140°SE
Pressure: 30.08"   Gusts: NA
Location:  39.0609°N, 94.6263°W
Report Text: KMKC 272254Z 14006KT 10SM CLR 14/M01 A3008 RMK AO2 SLP186 T01391006
Loading
Personal Weather Stations






























Interactive Weather Map New forecast layout! Learn more

10-Day Weather Forecast

Advertisements
Track Severe Weather on mobile